Amagi Galaxy — V7VE9 — position and weather

sailwx.info

Track history (hours):
 
Tides and Currents Weather Stations Pressure Air Temp Water Temp Dewpoint Dewpoint Depression Visibility Wind Speed Wind Dir Waves Ship Positions

Amagi Galaxy

Last reported at 2016-Jul-23 22:03 UTC. Time now 2016-Jul-30 03:35 UTC.
Position N 48°31' W 126°45'.

Length 152 m; draft 9.8 m.

Type: Ship (hazmat cat A). MMSI: 538004105.

Date/timePositionNaut miles runAvg speedWind from/ knotsBaromVisibWave heightAir tempDewpointWater temp
2016-Jul-23 22:03N 48°31' W 126°45'713.9
2016-Jul-23 21:33N 48°31' W 126°34'1313.4
2016-Jul-23 20:33N 48°31' W 126°14'1313.4
2016-Jul-23 19:34N 48°31' W 125°54'1414.3
2016-Jul-23 18:34N 48°31' W 125°32'1414.2
2016-Jul-23 17:33N 48°32' W 125°11'1514.8
2016-Jul-23 16:33N 48°31' W 124°49'1514.9
2016-Jul-23 15:34N 48°26' W 124°28'1414.2
2016-Jul-23 14:33N 48°21' W 124°08'1413.5
2016-Jul-23 13:33N 48°17' W 123°48'1312.9
2016-Jul-23 12:32N 48°14' W 123°29'4 4.3
2016-Jul-23 11:34N 48°11' W 123°26'8 8.0
2016-Jul-23 10:33N 48°14' W 123°37'1211.9
2016-Jul-23 09:32N 48°14' W 123°55'1212.5
2016-Jul-23 08:33N 48°19' W 124°12'1211.7
2016-Jul-23 07:34N 48°24' W 124°28'1211.8
2016-Jul-23 06:34N 48°29' W 124°44'2211.1
2016-Jul-23 04:32N 48°16' W 125°11'1312.4
2016-Jul-23 03:27N 48°02' W 125°13'5112.8
2016-Jul-22 23:29N 47°12' W 124°58'1212.4
2016-Jul-22 22:33N 47°01' W 124°54'1212.4
2016-Jul-22 21:33N 46°49' W 124°50'1312.5
2016-Jul-22 20:33N 46°37' W 124°47'1111.4
2016-Jul-22 19:34N 46°28' W 124°37'1212.4
2016-Jul-22 18:33N 46°20' W 124°23'1212.3
2016-Jul-22 17:34N 46°12' W 124°09'10 9.8
2016-Jul-22 16:33N 46°12' W 123°55'1212.3
2016-Jul-22 15:33N 46°16' W 123°38'1110.6
2016-Jul-22 14:33N 46°10' W 123°25'10 9.5
2016-Jul-22 13:34N 46°11' W 123°11'0 0.0
2016-Jul-22 12:13N 46°11' W 123°11'0 0.0
2016-Jul-22 11:31N 46°11' W 123°11'0 0.0
2016-Jul-22 10:31N 46°11' W 123°11'0 0.0
2016-Jul-22 08:07N 46°11' W 123°11'0 0.0
2016-Jul-22 02:31N 46°11' W 123°11'0 0.0
2016-Jul-22 01:31N 46°11' W 123°11'0 0.0
2016-Jul-22 00:13N 46°11' W 123°11'0 0.0
2016-Jul-21 23:31N 46°11' W 123°11'0 0.0
2016-Jul-21 22:13N 46°11' W 123°11'0 0.0
2016-Jul-21 20:07N 46°11' W 123°11'0 0.0
2016-Jul-21 15:19N 46°11' W 123°11'0 0.0
2016-Jul-21 14:31N 46°11' W 123°11'0 0.0
2016-Jul-21 12:25N 46°11' W 123°11'0 0.0
2016-Jul-21 11:19N 46°11' W 123°11'0 0.0
2016-Jul-21 10:25N 46°11' W 123°11'0 0.0
2016-Jul-21 09:31N 46°11' W 123°11'0 0.0
2016-Jul-21 06:19N 46°11' W 123°11'0 0.0
2016-Jul-21 05:31N 46°11' W 123°11'0 0.0
2016-Jul-21 04:31N 46°11' W 123°11'0 0.0
2016-Jul-21 01:07N 46°11' W 123°11'0 0.0
2016-Jul-20 19:07N 46°11' W 123°11'0 0.0
2016-Jul-20 18:19N 46°11' W 123°11'0 0.0
2016-Jul-20 17:31N 46°11' W 123°11'0 0.0
2016-Jul-20 16:19N 46°11' W 123°11'0 0.0
2016-Jul-20 15:31N 46°11' W 123°11'0 0.0
2016-Jul-20 13:04N 46°11' W 123°11'0 0.3
2016-Jul-20 12:34N 46°11' W 123°11'8 8.0
2016-Jul-20 11:33N 46°08' W 123°00'2 1.8
2016-Jul-20 10:31N 46°07' W 122°58'0 0.1
2016-Jul-20 09:28N 46°07' W 122°58'0 0.1
2016-Jul-20 08:31N 46°07' W 122°59'0 0.0
2016-Jul-20 07:32N 46°07' W 122°59'0 0.0
2016-Jul-20 06:32N 46°07' W 122°59'0 0.0
2016-Jul-20 05:31N 46°07' W 122°59'0 0.0
2016-Jul-20 04:29N 46°07' W 122°59'0 0.0
2016-Jul-20 03:31N 46°07' W 122°59'0 0.0
2016-Jul-20 02:32N 46°07' W 122°59'0 0.0
2016-Jul-20 01:31N 46°07' W 122°59'0 0.1
2016-Jul-20 00:31N 46°07' W 122°58'0 0.0
2016-Jul-19 23:31N 46°07' W 122°58'0 0.0
2016-Jul-19 22:31N 46°07' W 122°58'0 0.2
2016-Jul-19 21:31N 46°07' W 122°59'0 0.0
2016-Jul-19 20:31N 46°07' W 122°59'0 0.0
2016-Jul-19 19:28N 46°07' W 122°59'0 0.0
2016-Jul-19 18:31N 46°07' W 122°59'0 0.0
2016-Jul-19 17:31N 46°07' W 122°59'0 0.0
2016-Jul-19 16:25N 46°07' W 122°59'0 0.0
2016-Jul-19 15:25N 46°07' W 122°59'0 0.0
2016-Jul-19 14:31N 46°07' W 122°59'0 0.0
2016-Jul-19 13:31N 46°07' W 122°59'0 0.0
2016-Jul-19 12:31N 46°07' W 122°59'0 0.1
2016-Jul-19 11:31N 46°07' W 122°58'0 0.1
2016-Jul-19 10:28N 46°07' W 122°58'0 0.0
2016-Jul-19 09:31N 46°07' W 122°58'0 0.1
2016-Jul-19 08:31N 46°07' W 122°58'0 0.1
2016-Jul-19 07:31N 46°07' W 122°59'0 0.0
2016-Jul-19 04:31N 46°07' W 122°59'0 0.0
2016-Jul-19 03:31N 46°07' W 122°59'0 0.0
2016-Jul-19 02:31N 46°07' W 122°59'0 0.0
2016-Jul-19 01:31N 46°07' W 122°59'0 0.1
2016-Jul-19 00:31N 46°07' W 122°58'0 0.0
2016-Jul-18 23:31N 46°07' W 122°58'0 0.2
2016-Jul-18 22:31N 46°07' W 122°59'0 0.0
2016-Jul-18 21:31N 46°07' W 122°59'0 0.0
2016-Jul-18 20:25N 46°07' W 122°59'0 0.0
2016-Jul-18 19:31N 46°07' W 122°59'0 0.0
2016-Jul-18 18:31N 46°07' W 122°59'0 0.0
2016-Jul-18 17:31N 46°07' W 122°59'0 0.0
2016-Jul-18 16:31N 46°07' W 122°59'0 0.0
2016-Jul-18 15:31N 46°07' W 122°59'0 0.0
2016-Jul-18 14:31N 46°07' W 122°59'0 0.0
2016-Jul-18 13:31N 46°07' W 122°59'0 0.0
2016-Jul-18 12:31N 46°07' W 122°59'0 0.0
2016-Jul-18 11:31N 46°07' W 122°59'0 0.1
2016-Jul-18 10:31N 46°07' W 122°58'0 0.0
2016-Jul-18 09:31N 46°07' W 122°58'0 0.0
2016-Jul-18 08:31N 46°07' W 122°58'0 0.1
2016-Jul-18 07:31N 46°07' W 122°58'0 0.1
2016-Jul-18 06:31N 46°07' W 122°59'0 0.0
2016-Jul-18 05:31N 46°07' W 122°59'0 0.0
2016-Jul-18 04:31N 46°07' W 122°59'0 0.0
2016-Jul-18 03:31N 46°07' W 122°59'0 0.0
2016-Jul-18 02:31N 46°07' W 122°59'0 0.0
2016-Jul-18 01:31N 46°07' W 122°59'0 0.0
2016-Jul-18 00:31N 46°07' W 122°59'0 0.0
2016-Jul-17 23:31N 46°07' W 122°59'0 0.1
2016-Jul-17 22:31N 46°07' W 122°58'0 0.0
2016-Jul-17 21:31N 46°07' W 122°58'0 0.0
2016-Jul-17 20:31N 46°07' W 122°59'0 0.0
2016-Jul-17 19:31N 46°07' W 122°59'0 0.0
2016-Jul-17 18:31N 46°07' W 122°59'0 0.0
2016-Jul-17 17:31N 46°07' W 122°59'0 0.0
2016-Jul-17 16:31N 46°07' W 122°59'0 0.0
2016-Jul-17 15:31N 46°07' W 122°59'0 0.0
2016-Jul-17 14:31N 46°07' W 122°59'0 0.0
2016-Jul-17 13:31N 46°07' W 122°59'0 0.0
2016-Jul-17 12:31N 46°07' W 122°59'0 0.0
2016-Jul-17 11:31N 46°07' W 122°59'0 0.0
2016-Jul-17 10:31N 46°07' W 122°59'0 0.2
2016-Jul-17 09:31N 46°07' W 122°58'0 0.0
2016-Jul-17 08:28N 46°07' W 122°58'0 0.0
2016-Jul-17 07:31N 46°07' W 122°58'0 0.1
2016-Jul-17 06:31N 46°07' W 122°58'0 0.0
2016-Jul-17 04:31N 46°07' W 122°59'0 0.0
2016-Jul-17 03:31N 46°07' W 122°59'0 0.0
2016-Jul-17 02:31N 46°07' W 122°59'0 0.0
2016-Jul-17 01:31N 46°07' W 122°59'0 0.0
2016-Jul-17 00:31N 46°07' W 122°59'0 0.0
2016-Jul-16 23:31N 46°07' W 122°59'0 0.0
2016-Jul-16 22:31N 46°07' W 122°59'0 0.0
2016-Jul-16 21:31N 46°07' W 122°59'0 0.0
2016-Jul-16 20:31N 46°07' W 122°59'0 0.0
2016-Jul-16 19:31N 46°07' W 122°59'0 0.0
2016-Jul-16 18:31N 46°07' W 122°59'0 0.0
2016-Jul-16 17:31N 46°07' W 122°59'0 0.0
2016-Jul-16 16:31N 46°07' W 122°59'0 0.0
2016-Jul-16 15:31N 46°07' W 122°59'0 0.0
2016-Jul-16 14:31N 46°07' W 122°59'0 0.0
2016-Jul-16 13:31N 46°07' W 122°59'0 0.0
2016-Jul-16 12:31N 46°07' W 122°59'0 0.0
2016-Jul-16 11:31N 46°07' W 122°59'0 0.0
2016-Jul-16 10:28N 46°07' W 122°59'0 0.1
2016-Jul-16 09:25N 46°07' W 122°58'0 0.1
2016-Jul-16 08:31N 46°07' W 122°58'0 0.0
2016-Jul-16 07:31N 46°07' W 122°58'0 0.0
2016-Jul-16 06:31N 46°07' W 122°58'0 0.1
2016-Jul-16 04:31N 46°07' W 122°59'0 0.0
2016-Jul-16 03:28N 46°07' W 122°59'0 0.0
2016-Jul-16 02:31N 46°07' W 122°59'0 0.0
2016-Jul-16 01:31N 46°07' W 122°59'0 0.0
2016-Jul-16 00:31N 46°07' W 122°59'0 0.0
2016-Jul-15 23:31N 46°07' W 122°59'0 0.0
2016-Jul-15 22:31N 46°07' W 122°59'0 0.0
2016-Jul-15 21:31N 46°07' W 122°58'0 0.1
2016-Jul-15 20:31N 46°07' W 122°58'0 0.1
2016-Jul-15 19:31N 46°07' W 122°59'0 0.0
2016-Jul-15 18:31N 46°07' W 122°59'0 0.0
2016-Jul-15 17:31N 46°07' W 122°59'0 0.0
2016-Jul-15 16:31N 46°07' W 122°59'0 0.0
2016-Jul-15 15:31N 46°07' W 122°59'0 0.0
2016-Jul-15 14:28N 46°07' W 122°59'0 0.0
2016-Jul-15 13:31N 46°07' W 122°59'0 0.0
2016-Jul-15 12:31N 46°07' W 122°59'0 0.0
2016-Jul-15 11:31N 46°07' W 122°59'0 0.0
2016-Jul-15 10:31N 46°07' W 122°59'0 0.0
2016-Jul-15 09:31N 46°07' W 122°59'0 0.1
2016-Jul-15 08:31N 46°07' W 122°58'0 0.0
2016-Jul-15 07:31N 46°07' W 122°58'0 0.0
2016-Jul-15 06:31N 46°07' W 122°58'0 0.0
2016-Jul-15 05:31N 46°07' W 122°58'0 0.1
2016-Jul-15 04:31N 46°07' W 122°58'0 0.1
2016-Jul-15 03:31N 46°07' W 122°59'0 0.0
2016-Jul-15 02:31N 46°07' W 122°59'0 0.0
2016-Jul-15 01:31N 46°07' W 122°59'0 0.0
2016-Jul-15 00:31N 46°07' W 122°59'0 0.0
2016-Jul-14 23:31N 46°07' W 122°59'0 0.0
2016-Jul-14 22:31N 46°07' W 122°59'0 0.0
2016-Jul-14 21:31N 46°07' W 122°59'0 0.0
2016-Jul-14 20:31N 46°07' W 122°59'0 0.0
2016-Jul-14 19:31N 46°07' W 122°59'0 0.0
2016-Jul-14 18:31N 46°07' W 122°59'0 0.0
2016-Jul-14 17:31N 46°07' W 122°59'0 0.0
2016-Jul-14 16:31N 46°07' W 122°59'0 0.0
2016-Jul-14 15:31N 46°07' W 122°59'0 0.0
2016-Jul-14 14:28N 46°07' W 122°59'0 0.0
2016-Jul-14 13:31N 46°07' W 122°59'0 0.0
2016-Jul-14 12:31N 46°07' W 122°59'0 0.0
2016-Jul-14 11:31N 46°07' W 122°59'0 0.0
2016-Jul-14 10:31N 46°07' W 122°59'0 0.0
2016-Jul-14 09:31N 46°07' W 122°59'0 0.0
2016-Jul-14 08:31N 46°07' W 122°59'0 0.1
2016-Jul-14 07:31N 46°07' W 122°58'0 0.1
2016-Jul-14 06:31N 46°07' W 122°58'0 0.0
2016-Jul-14 05:31N 46°07' W 122°58'0 0.0
2016-Jul-14 04:31N 46°07' W 122°58'0 0.2
2016-Jul-14 03:31N 46°07' W 122°59'0 0.0
2016-Jul-14 02:31N 46°07' W 122°59'0 0.0
2016-Jul-14 01:31N 46°07' W 122°59'0 0.0
2016-Jul-14 00:31N 46°07' W 122°59'0 0.0
2016-Jul-13 23:31N 46°07' W 122°59'0 0.0
2016-Jul-13 22:31N 46°07' W 122°59'  
Track history (hours):
 
Tides and Currents Weather Stations Pressure Air Temp Water Temp Dewpoint Dewpoint Depression Visibility Wind Speed Wind Dir Waves Ship Positions

Amagi Galaxy

Last reported at 2016-Jul-23 22:03 UTC. Time now 2016-Jul-30 03:35 UTC.
Position N 48°31' W 126°45'.

Length 152 m; draft 9.8 m.

Type: Ship (hazmat cat A). MMSI: 538004105.

Date/timePositionNaut miles runAvg speedWind from/ knotsBaromVisibWave heightAir tempDewpointWater temp
2016-Jul-23 22:03N 48°31' W 126°45'713.9
2016-Jul-23 21:33N 48°31' W 126°34'1313.4
2016-Jul-23 20:33N 48°31' W 126°14'1313.4
2016-Jul-23 19:34N 48°31' W 125°54'1414.3
2016-Jul-23 18:34N 48°31' W 125°32'1414.2
2016-Jul-23 17:33N 48°32' W 125°11'1514.8
2016-Jul-23 16:33N 48°31' W 124°49'1514.9
2016-Jul-23 15:34N 48°26' W 124°28'1414.2
2016-Jul-23 14:33N 48°21' W 124°08'1413.5
2016-Jul-23 13:33N 48°17' W 123°48'1312.9
2016-Jul-23 12:32N 48°14' W 123°29'4 4.3
2016-Jul-23 11:34N 48°11' W 123°26'8 8.0
2016-Jul-23 10:33N 48°14' W 123°37'1211.9
2016-Jul-23 09:32N 48°14' W 123°55'1212.5
2016-Jul-23 08:33N 48°19' W 124°12'1211.7
2016-Jul-23 07:34N 48°24' W 124°28'1211.8
2016-Jul-23 06:34N 48°29' W 124°44'2211.1
2016-Jul-23 04:32N 48°16' W 125°11'1312.4
2016-Jul-23 03:27N 48°02' W 125°13'5112.8
2016-Jul-22 23:29N 47°12' W 124°58'1212.4
2016-Jul-22 22:33N 47°01' W 124°54'1212.4
2016-Jul-22 21:33N 46°49' W 124°50'1312.5
2016-Jul-22 20:33N 46°37' W 124°47'1111.4
2016-Jul-22 19:34N 46°28' W 124°37'1212.4
2016-Jul-22 18:33N 46°20' W 124°23'1212.3
2016-Jul-22 17:34N 46°12' W 124°09'10 9.8
2016-Jul-22 16:33N 46°12' W 123°55'1212.3
2016-Jul-22 15:33N 46°16' W 123°38'1110.6
2016-Jul-22 14:33N 46°10' W 123°25'10 9.5
2016-Jul-22 13:34N 46°11' W 123°11'0 0.0
2016-Jul-22 12:13N 46°11' W 123°11'0 0.0
2016-Jul-22 11:31N 46°11' W 123°11'0 0.0
2016-Jul-22 10:31N 46°11' W 123°11'0 0.0
2016-Jul-22 08:07N 46°11' W 123°11'0 0.0
2016-Jul-22 02:31N 46°11' W 123°11'0 0.0
2016-Jul-22 01:31N 46°11' W 123°11'0 0.0
2016-Jul-22 00:13N 46°11' W 123°11'0 0.0
2016-Jul-21 23:31N 46°11' W 123°11'0 0.0
2016-Jul-21 22:13N 46°11' W 123°11'0 0.0
2016-Jul-21 20:07N 46°11' W 123°11'0 0.0
2016-Jul-21 15:19N 46°11' W 123°11'0 0.0
2016-Jul-21 14:31N 46°11' W 123°11'0 0.0
2016-Jul-21 12:25N 46°11' W 123°11'0 0.0
2016-Jul-21 11:19N 46°11' W 123°11'0 0.0
2016-Jul-21 10:25N 46°11' W 123°11'0 0.0
2016-Jul-21 09:31N 46°11' W 123°11'0 0.0
2016-Jul-21 06:19N 46°11' W 123°11'0 0.0
2016-Jul-21 05:31N 46°11' W 123°11'0 0.0
2016-Jul-21 04:31N 46°11' W 123°11'0 0.0
2016-Jul-21 01:07N 46°11' W 123°11'0 0.0
2016-Jul-20 19:07N 46°11' W 123°11'0 0.0
2016-Jul-20 18:19N 46°11' W 123°11'0 0.0
2016-Jul-20 17:31N 46°11' W 123°11'0 0.0
2016-Jul-20 16:19N 46°11' W 123°11'0 0.0
2016-Jul-20 15:31N 46°11' W 123°11'0 0.0
2016-Jul-20 13:04N 46°11' W 123°11'0 0.3
2016-Jul-20 12:34N 46°11' W 123°11'8 8.0
2016-Jul-20 11:33N 46°08' W 123°00'2 1.8
2016-Jul-20 10:31N 46°07' W 122°58'0 0.1
2016-Jul-20 09:28N 46°07' W 122°58'0 0.1
2016-Jul-20 08:31N 46°07' W 122°59'0 0.0
2016-Jul-20 07:32N 46°07' W 122°59'0 0.0
2016-Jul-20 06:32N 46°07' W 122°59'0 0.0
2016-Jul-20 05:31N 46°07' W 122°59'0 0.0
2016-Jul-20 04:29N 46°07' W 122°59'0 0.0
2016-Jul-20 03:31N 46°07' W 122°59'0 0.0
2016-Jul-20 02:32N 46°07' W 122°59'0 0.0
2016-Jul-20 01:31N 46°07' W 122°59'0 0.1
2016-Jul-20 00:31N 46°07' W 122°58'0 0.0
2016-Jul-19 23:31N 46°07' W 122°58'0 0.0
2016-Jul-19 22:31N 46°07' W 122°58'0 0.2
2016-Jul-19 21:31N 46°07' W 122°59'0 0.0
2016-Jul-19 20:31N 46°07' W 122°59'0 0.0
2016-Jul-19 19:28N 46°07' W 122°59'0 0.0
2016-Jul-19 18:31N 46°07' W 122°59'0 0.0
2016-Jul-19 17:31N 46°07' W 122°59'0 0.0
2016-Jul-19 16:25N 46°07' W 122°59'0 0.0
2016-Jul-19 15:25N 46°07' W 122°59'0 0.0
2016-Jul-19 14:31N 46°07' W 122°59'0 0.0
2016-Jul-19 13:31N 46°07' W 122°59'0 0.0
2016-Jul-19 12:31N 46°07' W 122°59'0 0.1
2016-Jul-19 11:31N 46°07' W 122°58'0 0.1
2016-Jul-19 10:28N 46°07' W 122°58'0 0.0
2016-Jul-19 09:31N 46°07' W 122°58'0 0.1
2016-Jul-19 08:31N 46°07' W 122°58'0 0.1
2016-Jul-19 07:31N 46°07' W 122°59'0 0.0
2016-Jul-19 04:31N 46°07' W 122°59'0 0.0
2016-Jul-19 03:31N 46°07' W 122°59'0 0.0
2016-Jul-19 02:31N 46°07' W 122°59'0 0.0
2016-Jul-19 01:31N 46°07' W 122°59'0 0.1
2016-Jul-19 00:31N 46°07' W 122°58'0 0.0
2016-Jul-18 23:31N 46°07' W 122°58'0 0.2
2016-Jul-18 22:31N 46°07' W 122°59'0 0.0
2016-Jul-18 21:31N 46°07' W 122°59'0 0.0
2016-Jul-18 20:25N 46°07' W 122°59'0 0.0
2016-Jul-18 19:31N 46°07' W 122°59'0 0.0
2016-Jul-18 18:31N 46°07' W 122°59'0 0.0
2016-Jul-18 17:31N 46°07' W 122°59'0 0.0
2016-Jul-18 16:31N 46°07' W 122°59'0 0.0
2016-Jul-18 15:31N 46°07' W 122°59'0 0.0
2016-Jul-18 14:31N 46°07' W 122°59'0 0.0
2016-Jul-18 13:31N 46°07' W 122°59'0 0.0
2016-Jul-18 12:31N 46°07' W 122°59'0 0.0
2016-Jul-18 11:31N 46°07' W 122°59'0 0.1
2016-Jul-18 10:31N 46°07' W 122°58'0 0.0
2016-Jul-18 09:31N 46°07' W 122°58'0 0.0
2016-Jul-18 08:31N 46°07' W 122°58'0 0.1
2016-Jul-18 07:31N 46°07' W 122°58'0 0.1
2016-Jul-18 06:31N 46°07' W 122°59'0 0.0
2016-Jul-18 05:31N 46°07' W 122°59'0 0.0
2016-Jul-18 04:31N 46°07' W 122°59'0 0.0
2016-Jul-18 03:31N 46°07' W 122°59'0 0.0
2016-Jul-18 02:31N 46°07' W 122°59'0 0.0
2016-Jul-18 01:31N 46°07' W 122°59'0 0.0
2016-Jul-18 00:31N 46°07' W 122°59'0 0.0
2016-Jul-17 23:31N 46°07' W 122°59'0 0.1
2016-Jul-17 22:31N 46°07' W 122°58'0 0.0
2016-Jul-17 21:31N 46°07' W 122°58'0 0.0
2016-Jul-17 20:31N 46°07' W 122°59'0 0.0
2016-Jul-17 19:31N 46°07' W 122°59'0 0.0
2016-Jul-17 18:31N 46°07' W 122°59'0 0.0
2016-Jul-17 17:31N 46°07' W 122°59'0 0.0
2016-Jul-17 16:31N 46°07' W 122°59'0 0.0
2016-Jul-17 15:31N 46°07' W 122°59'0 0.0
2016-Jul-17 14:31N 46°07' W 122°59'0 0.0
2016-Jul-17 13:31N 46°07' W 122°59'0 0.0
2016-Jul-17 12:31N 46°07' W 122°59'0 0.0
2016-Jul-17 11:31N 46°07' W 122°59'0 0.0
2016-Jul-17 10:31N 46°07' W 122°59'0 0.2
2016-Jul-17 09:31N 46°07' W 122°58'0 0.0
2016-Jul-17 08:28N 46°07' W 122°58'0 0.0
2016-Jul-17 07:31N 46°07' W 122°58'0 0.1
2016-Jul-17 06:31N 46°07' W 122°58'0 0.0
2016-Jul-17 04:31N 46°07' W 122°59'0 0.0
2016-Jul-17 03:31N 46°07' W 122°59'0 0.0
2016-Jul-17 02:31N 46°07' W 122°59'0 0.0
2016-Jul-17 01:31N 46°07' W 122°59'0 0.0
2016-Jul-17 00:31N 46°07' W 122°59'0 0.0
2016-Jul-16 23:31N 46°07' W 122°59'0 0.0
2016-Jul-16 22:31N 46°07' W 122°59'0 0.0
2016-Jul-16 21:31N 46°07' W 122°59'0 0.0
2016-Jul-16 20:31N 46°07' W 122°59'0 0.0
2016-Jul-16 19:31N 46°07' W 122°59'0 0.0
2016-Jul-16 18:31N 46°07' W 122°59'0 0.0
2016-Jul-16 17:31N 46°07' W 122°59'0 0.0
2016-Jul-16 16:31N 46°07' W 122°59'0 0.0
2016-Jul-16 15:31N 46°07' W 122°59'0 0.0
2016-Jul-16 14:31N 46°07' W 122°59'0 0.0
2016-Jul-16 13:31N 46°07' W 122°59'0 0.0
2016-Jul-16 12:31N 46°07' W 122°59'0 0.0
2016-Jul-16 11:31N 46°07' W 122°59'0 0.0
2016-Jul-16 10:28N 46°07' W 122°59'0 0.1
2016-Jul-16 09:25N 46°07' W 122°58'0 0.1
2016-Jul-16 08:31N 46°07' W 122°58'0 0.0
2016-Jul-16 07:31N 46°07' W 122°58'0 0.0
2016-Jul-16 06:31N 46°07' W 122°58'0 0.1
2016-Jul-16 04:31N 46°07' W 122°59'0 0.0
2016-Jul-16 03:28N 46°07' W 122°59'0 0.0
2016-Jul-16 02:31N 46°07' W 122°59'0 0.0
2016-Jul-16 01:31N 46°07' W 122°59'0 0.0
2016-Jul-16 00:31N 46°07' W 122°59'0 0.0
2016-Jul-15 23:31N 46°07' W 122°59'0 0.0
2016-Jul-15 22:31N 46°07' W 122°59'0 0.0
2016-Jul-15 21:31N 46°07' W 122°58'0 0.1
2016-Jul-15 20:31N 46°07' W 122°58'0 0.1
2016-Jul-15 19:31N 46°07' W 122°59'0 0.0
2016-Jul-15 18:31N 46°07' W 122°59'0 0.0
2016-Jul-15 17:31N 46°07' W 122°59'0 0.0
2016-Jul-15 16:31N 46°07' W 122°59'0 0.0
2016-Jul-15 15:31N 46°07' W 122°59'0 0.0
2016-Jul-15 14:28N 46°07' W 122°59'0 0.0
2016-Jul-15 13:31N 46°07' W 122°59'0 0.0
2016-Jul-15 12:31N 46°07' W 122°59'0 0.0
2016-Jul-15 11:31N 46°07' W 122°59'0 0.0
2016-Jul-15 10:31N 46°07' W 122°59'0 0.0
2016-Jul-15 09:31N 46°07' W 122°59'0 0.1
2016-Jul-15 08:31N 46°07' W 122°58'0 0.0
2016-Jul-15 07:31N 46°07' W 122°58'0 0.0
2016-Jul-15 06:31N 46°07' W 122°58'0 0.0
2016-Jul-15 05:31N 46°07' W 122°58'0 0.1
2016-Jul-15 04:31N 46°07' W 122°58'0 0.1
2016-Jul-15 03:31N 46°07' W 122°59'0 0.0
2016-Jul-15 02:31N 46°07' W 122°59'0 0.0
2016-Jul-15 01:31N 46°07' W 122°59'0 0.0
2016-Jul-15 00:31N 46°07' W 122°59'0 0.0
2016-Jul-14 23:31N 46°07' W 122°59'0 0.0
2016-Jul-14 22:31N 46°07' W 122°59'0 0.0
2016-Jul-14 21:31N 46°07' W 122°59'0 0.0
2016-Jul-14 20:31N 46°07' W 122°59'0 0.0
2016-Jul-14 19:31N 46°07' W 122°59'0 0.0
2016-Jul-14 18:31N 46°07' W 122°59'0 0.0
2016-Jul-14 17:31N 46°07' W 122°59'0 0.0
2016-Jul-14 16:31N 46°07' W 122°59'0 0.0
2016-Jul-14 15:31N 46°07' W 122°59'0 0.0
2016-Jul-14 14:28N 46°07' W 122°59'0 0.0
2016-Jul-14 13:31N 46°07' W 122°59'0 0.0
2016-Jul-14 12:31N 46°07' W 122°59'0 0.0
2016-Jul-14 11:31N 46°07' W 122°59'0 0.0
2016-Jul-14 10:31N 46°07' W 122°59'0 0.0
2016-Jul-14 09:31N 46°07' W 122°59'0 0.0
2016-Jul-14 08:31N 46°07' W 122°59'0 0.1
2016-Jul-14 07:31N 46°07' W 122°58'0 0.1
2016-Jul-14 06:31N 46°07' W 122°58'0 0.0
2016-Jul-14 05:31N 46°07' W 122°58'0 0.0
2016-Jul-14 04:31N 46°07' W 122°58'0 0.2
2016-Jul-14 03:31N 46°07' W 122°59'0 0.0
2016-Jul-14 02:31N 46°07' W 122°59'0 0.0
2016-Jul-14 01:31N 46°07' W 122°59'0 0.0
2016-Jul-14 00:31N 46°07' W 122°59'0 0.0
2016-Jul-13 23:31N 46°07' W 122°59'0 0.0
2016-Jul-13 22:31N 46°07' W 122°59'  

Dump ship's entire track history